Time;durP1;ratioP1;P1;durP2;ratioP2;P2;SDS_P1;SDS_P2;PMS_P1;PMS_P2;Temp;Humidity;BMP_temperature;BMP_pressure;BME280_temperature;BME280_humidity;BME280_pressure;Samples;Min_cycle;Max_cycle;Signal;HPM_P1;HPM_P2
2023/03/29 00:02:08;;;;;;;;;;;;;;;9.96;nan;98474.66;4952839;29;19928;-86
2023/03/29 00:04:52;;;;;;;;;;;;;;;9.99;nan;98475.06;4945019;29;19921;-85
2023/03/29 00:07:36;;;;;;;;;;;;;;;10.00;nan;98481.09;4934818;29;19921;-88
2023/03/29 00:10:21;;;;;;;;;;;;;;;9.99;nan;98482.91;4944617;29;20001;-86
2023/03/29 00:13:05;;;;;;;;;;;;;;;10.00;nan;98478.47;4952842;29;19969;-88
2023/03/29 00:15:49;;;;;;;;;;;;;;;10.08;nan;98470.41;4933581;29;19965;-88
2023/03/29 00:18:33;;;;;;;;;;;;;;;10.00;nan;98470.59;4946859;29;20279;-86
2023/03/29 00:21:17;;;;;;;;;;;;;;;10.00;nan;98467.97;4929055;29;19942;-86
2023/03/29 00:24:00;;;;;;;;;;;;;;;10.06;nan;98480.28;4927350;29;19926;-85
2023/03/29 00:26:45;;;;;;;;;;;;;;;9.96;nan;98472.03;4948925;29;20382;-86
2023/03/29 00:29:29;;;;;;;;;;;;;;;10.06;nan;98477.66;4951872;29;20289;-87
2023/03/29 00:32:13;;;;;;;;;;;;;;;10.08;nan;98480.88;4947090;29;19926;-85
2023/03/29 00:34:57;;;;;;;;;;;;;;;10.10;nan;98486.72;4941598;29;19930;-87
2023/03/29 00:37:41;;;;;;;;;;;;;;;10.07;nan;98487.16;4950631;29;20016;-86
2023/03/29 00:40:25;;;;;;;;;;;;;;;10.06;nan;98487.34;4949855;29;19924;-85
2023/03/29 00:43:16;;;;;;;;;;;;;;;10.03;nan;98479.88;4941873;29;20395;-85
2023/03/29 00:46:00;;;;;;;;;;;;;;;10.08;nan;98480.88;4942882;29;20049;-85
2023/03/29 00:48:45;;;;;;;;;;;;;;;10.11;nan;98471.78;4934001;29;19961;-86
2023/03/29 00:51:32;;;;;;;;;;;;;;;9.92;nan;98476.06;4929382;29;19921;-85
2023/03/29 00:54:18;;;;;;;;;;;;;;;9.96;nan;98478.09;4948528;29;19990;-88
2023/03/29 00:57:03;;;;;;;;;;;;;;;9.94;nan;98479.28;4932724;29;19921;-87
2023/03/29 00:59:47;;;;;;;;;;;;;;;10.04;nan;98469.22;4946836;29;20373;-85
2023/03/29 01:02:33;;;;;;;;;;;;;;;9.94;nan;98463.56;4932370;29;20391;-87
2023/03/29 01:05:38;;;;;;;;;;;;;;;9.90;nan;98467.59;4930999;29;19970;-87
2023/03/29 01:08:26;;;;;;;;;;;;;;;9.77;nan;98474.47;4948769;29;19969;-85
2023/03/29 01:11:16;;;;;;;;;;;;;;;9.99;nan;98466.38;4948610;29;19921;-86
2023/03/29 01:14:02;;;;;;;;;;;;;;;9.90;nan;98478.09;4951480;29;20009;-87
2023/03/29 01:16:48;;;;;;;;;;;;;;;10.01;nan;98466.97;4927692;29;20324;-88
2023/03/29 01:19:37;;;;;;;;;;;;;;;10.01;nan;98482.69;4933557;29;19965;-85
2023/03/29 01:22:28;;;;;;;;;;;;;;;9.93;nan;98488.16;4930139;29;19977;-86
2023/03/29 01:25:25;;;;;;;;;;;;;;;10.08;nan;98477.44;4950377;29;19949;-86
2023/03/29 01:28:16;;;;;;;;;;;;;;;10.12;nan;98455.84;4950949;29;19917;-86
2023/03/29 01:31:11;;;;;;;;;;;;;;;10.06;nan;98461.13;4946761;29;20020;-85
2023/03/29 01:34:26;;;;;;;;;;;;;;;9.68;nan;98455.53;4930457;29;19937;-86
2023/03/29 01:37:16;;;;;;;;;;;;;;;9.99;nan;98466.38;4936609;29;19926;-85
2023/03/29 01:40:01;;;;;;;;;;;;;;;9.92;nan;98455.09;4929724;29;19969;-85
2023/03/29 01:42:56;;;;;;;;;;;;;;;9.96;nan;98458.91;4950116;29;19930;-85
2023/03/29 01:45:46;;;;;;;;;;;;;;;9.82;nan;98453.69;4929060;29;20006;-85
2023/03/29 01:48:45;;;;;;;;;;;;;;;9.85;nan;98455.94;4942351;29;19941;-85
2023/03/29 01:51:36;;;;;;;;;;;;;;;9.81;nan;98449.44;4941398;29;19921;-87
2023/03/29 01:54:35;;;;;;;;;;;;;;;9.81;nan;98449.44;4934710;29;19933;-87
2023/03/29 01:57:20;;;;;;;;;;;;;;;9.75;nan;98431.16;4942624;29;19975;-86
2023/03/29 02:00:11;;;;;;;;;;;;;;;9.77;nan;98436.97;4925336;29;19961;-86
2023/03/29 02:03:01;;;;;;;;;;;;;;;9.72;nan;98437.59;4928366;29;19960;-85
2023/03/29 02:05:46;;;;;;;;;;;;;;;9.72;nan;98433.13;4944771;29;19974;-86
2023/03/29 02:08:30;;;;;;;;;;;;;;;9.69;nan;98424.91;4930485;29;20388;-87
2023/03/29 02:11:15;;;;;;;;;;;;;;;9.55;nan;98419.66;4929779;29;19997;-86
2023/03/29 02:13:59;;;;;;;;;;;;;;;9.75;nan;98412.78;4926282;29;20383;-85
2023/03/29 02:16:45;;;;;;;;;;;;;;;9.73;nan;98405.13;4943762;29;19971;-85
2023/03/29 02:19:28;;;;;;;;;;;;;;;9.68;nan;98399.69;4949744;29;19921;-85
2023/03/29 02:22:14;;;;;;;;;;;;;;;9.67;nan;98400.72;4928677;29;19981;-85
2023/03/29 02:25:00;;;;;;;;;;;;;;;9.67;nan;98395.47;4926906;29;19929;-86
2023/03/29 02:27:44;;;;;;;;;;;;;;;9.65;nan;98407.97;4942634;29;19925;-86
2023/03/29 02:30:32;;;;;;;;;;;;;;;9.75;nan;98404.94;4948440;29;20268;-85
2023/03/29 02:33:18;;;;;;;;;;;;;;;9.79;nan;98408.75;4948000;29;19961;-87
2023/03/29 02:36:06;;;;;;;;;;;;;;;9.70;nan;98410.78;4943647;29;19922;-86
2023/03/29 02:38:51;;;;;;;;;;;;;;;9.75;nan;98403.09;4929387;29;19918;-86
2023/03/29 02:41:36;;;;;;;;;;;;;;;9.81;nan;98397.03;4948293;29;19937;-88
2023/03/29 02:44:26;;;;;;;;;;;;;;;9.76;nan;98399.47;4948249;29;19942;-86
2023/03/29 02:47:21;;;;;;;;;;;;;;;9.82;nan;98398.63;4930560;29;20317;-85
2023/03/29 02:50:07;;;;;;;;;;;;;;;9.89;nan;98397.84;4949991;29;20434;-87
2023/03/29 02:53:00;;;;;;;;;;;;;;;9.86;nan;98399.03;4928113;29;20045;-86
2023/03/29 02:55:45;;;;;;;;;;;;;;;9.91;nan;98401.84;4946520;29;19926;-85
2023/03/29 02:58:30;;;;;;;;;;;;;;;9.89;nan;98382.13;4948670;29;19969;-86
2023/03/29 03:01:15;;;;;;;;;;;;;;;9.86;nan;98378.91;4945361;29;19921;-85
2023/03/29 03:03:59;;;;;;;;;;;;;;;9.83;nan;98378.50;4945411;29;19924;-86
2023/03/29 03:06:43;;;;;;;;;;;;;;;9.79;nan;98385.94;4928993;29;19968;-86
2023/03/29 03:09:27;;;;;;;;;;;;;;;9.81;nan;98386.56;4950007;29;20305;-86
2023/03/29 03:12:11;;;;;;;;;;;;;;;9.92;nan;98381.69;4949882;29;20272;-87
2023/03/29 03:14:55;;;;;;;;;;;;;;;9.92;nan;98381.69;4944297;29;19921;-86
2023/03/29 03:17:39;;;;;;;;;;;;;;;9.99;nan;98391.16;4946671;29;20324;-84
2023/03/29 03:20:23;;;;;;;;;;;;;;;9.88;nan;98386.53;4953908;29;20276;-86
2023/03/29 03:23:08;;;;;;;;;;;;;;;9.99;nan;98398.19;4952082;29;19929;-86
2023/03/29 03:25:52;;;;;;;;;;;;;;;9.95;nan;98391.75;4932310;29;20285;-87
2023/03/29 03:28:37;;;;;;;;;;;;;;;9.89;nan;98397.84;4946089;29;19921;-85
2023/03/29 03:31:22;;;;;;;;;;;;;;;9.88;nan;98404.88;4927344;29;19965;-85
2023/03/29 03:34:07;;;;;;;;;;;;;;;9.90;nan;98400.25;4951227;29;19998;-85
2023/03/29 03:36:53;;;;;;;;;;;;;;;10.05;nan;98399.19;4933373;29;19969;-85
2023/03/29 03:39:37;;;;;;;;;;;;;;;10.00;nan;98399.81;4942541;29;19930;-85
2023/03/29 03:42:21;;;;;;;;;;;;;;;9.97;nan;98403.66;4947576;29;20401;-85
2023/03/29 03:45:07;;;;;;;;;;;;;;;10.06;nan;98391.13;4934427;29;19990;-86
2023/03/29 03:47:51;;;;;;;;;;;;;;;10.00;nan;98384.06;4935768;29;20002;-87
2023/03/29 03:50:35;;;;;;;;;;;;;;;10.02;nan;98387.28;4930617;29;19921;-85
2023/03/29 03:53:19;;;;;;;;;;;;;;;10.00;nan;98384.06;4929281;29;20418;-86
2023/03/29 03:56:07;;;;;;;;;;;;;;;10.17;nan;98379.19;4932258;29;20266;-85
2023/03/29 03:58:51;;;;;;;;;;;;;;;10.18;nan;98385.22;4931258;29;19964;-88
2023/03/29 04:01:36;;;;;;;;;;;;;;;10.33;nan;98375.28;4943180;29;19966;-86
2023/03/29 04:04:21;;;;;;;;;;;;;;;10.28;nan;98375.13;4943094;29;19924;-86
2023/03/29 04:07:04;;;;;;;;;;;;;;;10.33;nan;98372.66;4928871;29;20002;-87
2023/03/29 04:09:49;;;;;;;;;;;;;;;10.43;nan;98367.81;4933246;29;19925;-86
2023/03/29 04:12:33;;;;;;;;;;;;;;;10.36;nan;98351.25;4948715;29;19922;-86
2023/03/29 04:15:19;;;;;;;;;;;;;;;10.31;nan;98358.13;4940053;29;19961;-87
2023/03/29 04:18:03;;;;;;;;;;;;;;;10.35;nan;98354.88;4933847;28;19925;-86
2023/03/29 04:20:47;;;;;;;;;;;;;;;10.37;nan;98352.84;4945702;29;20328;-85
2023/03/29 04:23:31;;;;;;;;;;;;;;;10.32;nan;98355.31;4929838;29;19924;-86
2023/03/29 04:26:16;;;;;;;;;;;;;;;10.37;nan;98354.69;4929515;29;20049;-86
2023/03/29 04:29:00;;;;;;;;;;;;;;;10.35;nan;98348.84;4949461;29;19961;-85
2023/03/29 04:31:44;;;;;;;;;;;;;;;10.23;nan;98336.38;4927956;29;19921;-85
2023/03/29 04:34:28;;;;;;;;;;;;;;;10.48;nan;98332.25;4947278;29;19925;-85
2023/03/29 04:37:12;;;;;;;;;;;;;;;10.38;nan;98336.09;4932429;29;19925;-86
2023/03/29 04:39:59;;;;;;;;;;;;;;;10.40;nan;98336.72;4945829;29;19981;-87
2023/03/29 04:42:44;;;;;;;;;;;;;;;10.29;nan;98337.38;4949366;29;20000;-87
2023/03/29 04:45:28;;;;;;;;;;;;;;;10.41;nan;98338.31;4952097;29;19921;-85
2023/03/29 04:48:12;;;;;;;;;;;;;;;10.41;nan;98327.03;4947900;29;19926;-87
2023/03/29 04:50:56;;;;;;;;;;;;;;;10.41;nan;98322.59;4926069;29;19969;-85
2023/03/29 04:53:40;;;;;;;;;;;;;;;10.43;nan;98320.59;4930278;29;19964;-85
2023/03/29 04:56:25;;;;;;;;;;;;;;;10.51;nan;98327.38;4943718;29;19984;-86
2023/03/29 04:59:09;;;;;;;;;;;;;;;10.55;nan;98333.00;4933486;29;19922;-86
2023/03/29 05:01:53;;;;;;;;;;;;;;;10.52;nan;98333.44;4940246;29;19921;-86
2023/03/29 05:04:37;;;;;;;;;;;;;;;10.63;nan;98337.22;4930311;29;19957;-86
2023/03/29 05:07:21;;;;;;;;;;;;;;;10.55;nan;98335.63;4944667;29;19921;-85
2023/03/29 05:10:06;;;;;;;;;;;;;;;10.64;nan;98325.69;4931444;29;20296;-85
2023/03/29 05:12:52;;;;;;;;;;;;;;;10.62;nan;98322.47;4950923;29;19965;-86
2023/03/29 05:15:36;;;;;;;;;;;;;;;10.56;nan;98329.38;4951131;29;19953;-85
2023/03/29 05:18:21;;;;;;;;;;;;;;;10.58;nan;98337.84;4944099;29;20024;-86
2023/03/29 05:21:05;;;;;;;;;;;;;;;10.57;nan;98336.22;4949662;29;19925;-86
2023/03/29 05:23:49;;;;;;;;;;;;;;;10.55;nan;98339.06;4950969;29;19934;-86
2023/03/29 05:26:34;;;;;;;;;;;;;;;10.52;nan;98342.13;4930154;29;19997;-85
2023/03/29 05:29:18;;;;;;;;;;;;;;;10.54;nan;98344.53;4933695;28;19925;-84
2023/03/29 05:32:02;;;;;;;;;;;;;;;10.40;nan;98352.47;4944503;29;19928;-86
2023/03/29 05:34:46;;;;;;;;;;;;;;;10.33;nan;98346.44;4953265;29;19964;-86
2023/03/29 05:37:32;;;;;;;;;;;;;;;10.54;nan;98347.16;4928702;29;20033;-86
2023/03/29 05:40:16;;;;;;;;;;;;;;;10.50;nan;98351.22;4947271;29;20281;-85
2023/03/29 05:43:01;;;;;;;;;;;;;;;10.63;nan;98345.91;4947499;29;20361;-85
2023/03/29 05:45:45;;;;;;;;;;;;;;;10.66;nan;98336.78;4951319;29;19965;-87
2023/03/29 05:48:29;;;;;;;;;;;;;;;10.57;nan;98331.78;4936535;29;19968;-86
2023/03/29 05:51:13;;;;;;;;;;;;;;;10.49;nan;98328.63;4949035;29;19970;-85
2023/03/29 05:53:57;;;;;;;;;;;;;;;10.55;nan;98333.00;4949306;29;19924;-86
2023/03/29 05:56:41;;;;;;;;;;;;;;;10.54;nan;98326.16;4945628;29;20387;-85
2023/03/29 05:59:27;;;;;;;;;;;;;;;10.60;nan;98335.78;4931312;29;20004;-86
2023/03/29 06:02:11;;;;;;;;;;;;;;;10.64;nan;98342.25;4937999;29;19926;-85
2023/03/29 06:04:56;;;;;;;;;;;;;;;10.52;nan;98342.13;4946452;29;19953;-86
2023/03/29 06:07:39;;;;;;;;;;;;;;;10.68;nan;98343.44;4944799;29;19942;-86
2023/03/29 06:10:24;;;;;;;;;;;;;;;10.79;nan;98341.94;4928605;29;19982;-85
2023/03/29 06:13:08;;;;;;;;;;;;;;;10.65;nan;98343.03;4932317;29;19973;-86
2023/03/29 06:15:52;;;;;;;;;;;;;;;10.59;nan;98323.69;4926788;29;19997;-87
2023/03/29 06:18:38;;;;;;;;;;;;;;;10.74;nan;98328.66;4929681;29;19921;-87
2023/03/29 06:22:02;;;;;;;;;;;;;;;10.85;nan;98321.91;4944171;29;19922;-87
2023/03/29 06:24:46;;;;;;;;;;;;;;;10.86;nan;98323.53;4861843;29;19942;-86
2023/03/29 06:27:31;;;;;;;;;;;;;;;10.87;nan;98309.38;4948673;29;19921;-86
2023/03/29 06:30:15;;;;;;;;;;;;;;;10.85;nan;98314.81;4941221;29;19962;-84
2023/03/29 06:32:59;;;;;;;;;;;;;;;10.84;nan;98320.31;4926764;29;19987;-87
2023/03/29 06:35:45;;;;;;;;;;;;;;;10.87;nan;98304.13;4950024;29;19929;-87
2023/03/29 06:38:29;;;;;;;;;;;;;;;10.98;nan;98305.25;4921554;29;19922;-82
2023/03/29 06:41:13;;;;;;;;;;;;;;;10.99;nan;98302.38;4939612;29;20268;-83
2023/03/29 06:43:57;;;;;;;;;;;;;;;11.13;nan;98307.53;4947603;29;19961;-84
2023/03/29 06:46:41;;;;;;;;;;;;;;;11.18;nan;98305.06;4952396;29;19965;-83
2023/03/29 06:49:26;;;;;;;;;;;;;;;11.20;nan;98308.28;4938661;29;20463;-85
2023/03/29 06:52:10;;;;;;;;;;;;;;;11.25;nan;98295.31;4949729;29;20030;-84
2023/03/29 06:54:54;;;;;;;;;;;;;;;11.34;nan;98303.72;4927827;29;19925;-86
2023/03/29 06:57:38;;;;;;;;;;;;;;;11.46;nan;98311.69;4934581;29;19938;-84
2023/03/29 07:00:28;;;;;;;;;;;;;;;11.40;nan;98310.72;4951484;29;19913;-83
2023/03/29 07:03:18;;;;;;;;;;;;;;;11.38;nan;98304.06;4931037;29;19953;-86
2023/03/29 07:06:08;;;;;;;;;;;;;;;11.49;nan;98305.16;4931997;29;19939;-85
2023/03/29 07:08:52;;;;;;;;;;;;;;;11.30;nan;98305.16;4947027;29;20436;-87
2023/03/29 07:11:36;;;;;;;;;;;;;;;11.49;nan;98305.97;4940978;29;20389;-86
2023/03/29 07:14:28;;;;;;;;;;;;;;;11.37;nan;98292.75;4949025;29;20400;-85
2023/03/29 07:17:15;;;;;;;;;;;;;;;11.51;nan;98303.16;4948456;29;19924;-88
2023/03/29 07:19:59;;;;;;;;;;;;;;;11.45;nan;98294.31;4926876;29;19928;-87
2023/03/29 07:22:45;;;;;;;;;;;;;;;11.55;nan;98294.59;4929762;29;19929;-88
2023/03/29 07:25:31;;;;;;;;;;;;;;;11.53;nan;98295.84;4951342;29;19921;-88
2023/03/29 07:28:15;;;;;;;;;;;;;;;11.54;nan;98292.97;4948125;29;20290;-89
2023/03/29 07:31:09;;;;;;;;;;;;;;;11.43;nan;98286.63;4945701;29;19918;-87
2023/03/29 07:33:54;;;;;;;;;;;;;;;11.66;nan;98289.63;4942364;29;19962;-87
2023/03/29 07:36:42;;;;;;;;;;;;;;;11.67;nan;98278.09;4946993;29;19922;-91
2023/03/29 07:39:29;;;;;;;;;;;;;;;11.78;nan;98268.66;4930840;29;19921;-90
2023/03/29 07:42:17;;;;;;;;;;;;;;;11.89;nan;98267.09;4934336;29;19925;-87
2023/03/29 07:45:05;;;;;;;;;;;;;;;11.99;nan;98265.53;4931841;29;20284;-89
2023/03/29 07:47:55;;;;;;;;;;;;;;;12.01;nan;98260.09;4946487;29;20405;-88
2023/03/29 07:50:39;;;;;;;;;;;;;;;12.27;nan;98263.38;4931496;29;20384;-89
2023/03/29 07:53:37;;;;;;;;;;;;;;;12.41;nan;98266.63;4932751;29;20264;-89
2023/03/29 07:56:21;;;;;;;;;;;;;;;12.37;nan;98273.38;4934640;29;20026;-89
2023/03/29 07:59:05;;;;;;;;;;;;;;;12.18;nan;98249.75;4933654;29;20004;-87
2023/03/29 08:01:49;;;;;;;;;;;;;;;12.23;nan;98235.94;4944732;29;19961;-90
2023/03/29 08:04:33;;;;;;;;;;;;;;;12.39;nan;98224.75;4931069;29;19921;-89
2023/03/29 08:07:18;;;;;;;;;;;;;;;12.46;nan;98222.00;4930797;29;19921;-87
2023/03/29 08:10:02;;;;;;;;;;;;;;;12.68;nan;98232.78;4930248;29;19921;-89
2023/03/29 08:12:47;;;;;;;;;;;;;;;12.70;nan;98230.72;4946796;29;19921;-89
2023/03/29 08:15:32;;;;;;;;;;;;;;;12.76;nan;98222.94;4927278;29;19921;-88
2023/03/29 08:18:16;;;;;;;;;;;;;;;12.64;nan;98215.84;4942386;29;20023;-87
2023/03/29 08:21:00;;;;;;;;;;;;;;;12.62;nan;98220.53;4946577;29;19922;-90
2023/03/29 08:23:44;;;;;;;;;;;;;;;12.84;nan;98217.34;4928220;29;19926;-89
2023/03/29 08:26:28;;;;;;;;;;;;;;;12.86;nan;98223.16;4928637;29;19925;-89
2023/03/29 08:29:12;;;;;;;;;;;;;;;13.05;nan;98225.69;4948873;29;19970;-88
2023/03/29 08:31:57;;;;;;;;;;;;;;;13.25;nan;98220.84;4926005;29;19921;-87
2023/03/29 08:34:41;;;;;;;;;;;;;;;13.14;nan;98219.00;4930749;29;20046;-88
2023/03/29 08:37:25;;;;;;;;;;;;;;;13.04;nan;98213.53;4925424;29;19921;-89
2023/03/29 08:40:15;;;;;;;;;;;;;;;13.13;nan;98217.41;4925507;29;19921;-89
2023/03/29 08:43:00;;;;;;;;;;;;;;;13.34;nan;98208.09;4931026;29;19985;-89
2023/03/29 08:45:44;;;;;;;;;;;;;;;13.39;nan;98205.56;4929443;29;19969;-89
2023/03/29 08:48:34;;;;;;;;;;;;;;;13.45;nan;98203.06;4925478;29;19926;-88
2023/03/29 08:51:21;;;;;;;;;;;;;;;13.46;nan;98194.91;4950263;29;19965;-88
2023/03/29 08:54:07;;;;;;;;;;;;;;;13.52;nan;98193.19;4943549;29;19973;-89
2023/03/29 08:56:53;;;;;;;;;;;;;;;13.82;nan;98203.50;4952225;29;20300;-86
2023/03/29 08:59:38;;;;;;;;;;;;;;;13.67;nan;98195.31;4926331;29;20449;-87
2023/03/29 09:02:24;;;;;;;;;;;;;;;13.59;nan;98193.84;4950293;29;20435;-90
2023/03/29 09:05:17;;;;;;;;;;;;;;;13.48;nan;98174.41;4927061;29;19965;-88
2023/03/29 09:08:01;;;;;;;;;;;;;;;13.56;nan;98184.59;4931087;29;19966;-86
2023/03/29 09:11:01;;;;;;;;;;;;;;;13.67;nan;98185.56;4930256;29;19921;-89
2023/03/29 09:14:00;;;;;;;;;;;;;;;13.56;nan;98181.13;4948744;29;20049;-86
2023/03/29 09:16:45;;;;;;;;;;;;;;;13.67;nan;98163.66;4928577;29;19929;-87
2023/03/29 09:19:29;;;;;;;;;;;;;;;13.53;nan;98145.47;4925574;29;19965;-85
2023/03/29 09:22:13;;;;;;;;;;;;;;;13.51;nan;98144.91;4950507;29;19925;-87
2023/03/29 09:25:22;;;;;;;;;;;;;;;13.43;nan;98140.81;4935079;29;20285;-88
2023/03/29 09:28:18;;;;;;;;;;;;;;;13.51;nan;98144.91;4944588;29;19941;-88
2023/03/29 09:31:14;;;;;;;;;;;;;;;13.49;nan;98136.44;4930754;29;19961;-89
2023/03/29 09:34:00;;;;;;;;;;;;;;;13.52;nan;98133.34;4945424;29;19921;-88
2023/03/29 09:36:55;;;;;;;;;;;;;;;13.25;nan;98144.41;4922298;29;20041;-89
2023/03/29 09:39:39;;;;;;;;;;;;;;;13.28;nan;98141.31;4949169;29;19938;-87
2023/03/29 09:42:26;;;;;;;;;;;;;;;13.06;nan;98127.19;4946938;29;19986;-89
2023/03/29 09:45:10;;;;;;;;;;;;;;;13.39;nan;98138.88;4923898;29;20321;-92
2023/03/29 09:48:01;;;;;;;;;;;;;;;13.56;nan;98128.41;4942517;29;20079;-92
2023/03/29 09:50:47;;;;;;;;;;;;;;;13.54;nan;98110.19;4937069;29;20001;-89
2023/03/29 09:53:30;;;;;;;;;;;;;;;13.20;nan;98106.63;4930067;29;19947;-89
2023/03/29 09:56:15;;;;;;;;;;;;;;;13.40;nan;98112.28;4939206;29;19925;-90
2023/03/29 10:02:35;;;;;;;;;;;;;;;13.36;nan;98126.16;4938957;29;20412;-90
2023/03/29 10:05:20;;;;;;;;;;;;;;;13.26;nan;98122.31;4952445;29;19970;-90
2023/03/29 10:08:18;;;;;;;;;;;;;;;13.24;nan;98116.47;4953918;29;19925;-90
2023/03/29 10:11:06;;;;;;;;;;;;;;;13.45;nan;98129.25;4953952;29;19918;-90
2023/03/29 10:13:55;;;;;;;;;;;;;;;13.28;nan;98109.69;4958678;29;19920;-92
2023/03/29 10:16:40;;;;;;;;;;;;;;;13.04;nan;98101.06;4947103;29;19921;-92
2023/03/29 10:19:25;;;;;;;;;;;;;;;13.04;nan;98110.81;4950613;29;19921;-91
2023/03/29 10:22:15;;;;;;;;;;;;;;;12.95;nan;98099.84;4950769;29;19922;-90
2023/03/29 10:24:59;;;;;;;;;;;;;;;12.98;nan;98096.72;4949444;29;20280;-91
2023/03/29 10:27:44;;;;;;;;;;;;;;;12.81;nan;98078.22;4948780;29;20005;-91
2023/03/29 10:30:34;;;;;;;;;;;;;;;12.73;nan;98087.28;4948728;29;19925;-91
2023/03/29 10:33:20;;;;;;;;;;;;;;;12.86;nan;98079.09;4948992;29;19969;-91
2023/03/29 10:36:10;;;;;;;;;;;;;;;12.95;nan;98079.53;4940848;29;19937;-89
2023/03/29 10:39:16;;;;;;;;;;;;;;;12.85;nan;98077.50;4945018;29;19966;-90
2023/03/29 10:42:07;;;;;;;;;;;;;;;12.80;nan;98066.88;4961619;29;19922;-91
2023/03/29 10:44:53;;;;;;;;;;;;;;;12.69;nan;98065.88;4925482;29;20053;-92
2023/03/29 10:47:37;;;;;;;;;;;;;;;12.46;nan;98061.44;4912193;29;19965;-90
2023/03/29 10:50:21;;;;;;;;;;;;;;;12.66;nan;98058.44;4925911;29;19929;-92
2023/03/29 10:53:09;;;;;;;;;;;;;;;12.66;nan;98060.25;4913686;29;20434;-91
2023/03/29 10:56:12;;;;;;;;;;;;;;;12.76;nan;98054.41;4913958;29;19926;-90
2023/03/29 10:58:57;;;;;;;;;;;;;;;12.71;nan;98053.28;4927913;29;19939;-90
2023/03/29 11:01:50;;;;;;;;;;;;;;;12.85;nan;98053.81;4926608;29;20333;-91
2023/03/29 11:04:43;;;;;;;;;;;;;;;12.88;nan;98049.91;4927129;29;19926;-93
2023/03/29 11:07:27;;;;;;;;;;;;;;;12.94;nan;98046.34;4929516;29;19922;-90
2023/03/29 11:10:21;;;;;;;;;;;;;;;13.04;nan;98045.72;4930000;29;20396;-91
2023/03/29 11:13:20;;;;;;;;;;;;;;;12.95;nan;98042.66;4928923;29;19922;-91
2023/03/29 11:16:10;;;;;;;;;;;;;;;12.90;nan;98037.31;4928862;29;20401;-90
2023/03/29 11:19:01;;;;;;;;;;;;;;;12.96;nan;98035.59;4927989;29;19922;-90
2023/03/29 11:21:45;;;;;;;;;;;;;;;12.98;nan;98025.59;4929002;29;19921;-90
2023/03/29 11:24:42;;;;;;;;;;;;;;;13.13;nan;98023.25;4932218;29;19970;-91
2023/03/29 11:27:43;;;;;;;;;;;;;;;13.17;nan;98020.16;4916195;29;19922;-91
2023/03/29 11:30:48;;;;;;;;;;;;;;;13.03;nan;98011.75;4917589;29;20409;-91
2023/03/29 11:33:38;;;;;;;;;;;;;;;13.23;nan;98006.00;4921021;29;19922;-92
2023/03/29 11:36:21;;;;;;;;;;;;;;;13.32;nan;97993.25;4931074;29;19922;-91
2023/03/29 11:39:21;;;;;;;;;;;;;;;13.70;nan;97987.31;4929753;29;19976;-91
2023/03/29 11:42:08;;;;;;;;;;;;;;;13.70;nan;97989.13;4929097;29;19998;-90
2023/03/29 11:44:53;;;;;;;;;;;;;;;13.59;nan;97982.91;4923057;29;19966;-91
2023/03/29 11:47:38;;;;;;;;;;;;;;;13.78;nan;97975.56;4933157;29;19923;-90
2023/03/29 11:50:29;;;;;;;;;;;;;;;14.01;nan;97979.03;4917036;29;19979;-91
2023/03/29 11:53:18;;;;;;;;;;;;;;;14.24;nan;97971.94;4930435;29;20467;-91
2023/03/29 11:56:25;;;;;;;;;;;;;;;14.46;nan;97968.50;4917473;29;19986;-91
2023/03/29 11:59:17;;;;;;;;;;;;;;;14.54;nan;97963.59;4932428;29;19918;-90
2023/03/29 12:02:11;;;;;;;;;;;;;;;14.46;nan;97963.22;4921661;29;19970;-91
2023/03/29 12:04:58;;;;;;;;;;;;;;;14.82;nan;97959.16;4928913;29;20008;-91
2023/03/29 12:07:49;;;;;;;;;;;;;;;14.87;nan;97942.56;4915710;29;19938;-92
2023/03/29 12:10:36;;;;;;;;;;;;;;;15.21;nan;97946.81;4928968;29;19926;-91
2023/03/29 12:13:27;;;;;;;;;;;;;;;15.25;nan;97943.44;4920031;29;19942;-90
2023/03/29 12:16:12;;;;;;;;;;;;;;;15.21;nan;97934.41;4935501;29;20067;-92
2023/03/29 12:18:58;;;;;;;;;;;;;;;14.84;nan;97935.94;4934044;29;19973;-91
2023/03/29 12:21:44;;;;;;;;;;;;;;;14.88;nan;97935.44;4929772;29;20023;-90
2023/03/29 12:24:30;;;;;;;;;;;;;;;15.19;nan;97928.59;4917537;29;19993;-91
2023/03/29 12:27:20;;;;;;;;;;;;;;;15.24;nan;97927.84;4917156;29;19939;-90
2023/03/29 12:30:04;;;;;;;;;;;;;;;15.36;nan;97917.09;4918412;29;20001;-91
2023/03/29 12:33:07;;;;;;;;;;;;;;;15.23;nan;97916.44;4915896;29;19961;-89
2023/03/29 12:35:55;;;;;;;;;;;;;;;15.20;nan;97918.78;4927942;29;19966;-90
2023/03/29 12:38:41;;;;;;;;;;;;;;;15.21;nan;97920.38;4925884;29;19945;-90
2023/03/29 12:41:25;;;;;;;;;;;;;;;15.24;nan;97915.41;4913783;29;20392;-89
2023/03/29 12:44:13;;;;;;;;;;;;;;;15.25;nan;97919.63;4911856;29;19925;-89
2023/03/29 12:46:59;;;;;;;;;;;;;;;15.30;nan;97920.72;4913127;29;19922;-90
2023/03/29 12:49:45;;;;;;;;;;;;;;;15.30;nan;97918.06;4925522;29;19930;-89
2023/03/29 12:52:31;;;;;;;;;;;;;;;15.22;nan;97891.06;4916064;29;19925;-89
2023/03/29 12:55:28;;;;;;;;;;;;;;;15.13;nan;97896.03;4926361;29;19962;-88
2023/03/29 12:58:25;;;;;;;;;;;;;;;14.61;nan;97902.66;4912245;29;19930;-89
2023/03/29 13:01:23;;;;;;;;;;;;;;;14.64;nan;97885.50;4924283;29;19925;-89
2023/03/29 13:04:13;;;;;;;;;;;;;;;14.43;nan;97872.09;4908891;29;19970;-89
2023/03/29 13:07:05;;;;;;;;;;;;;;;14.44;nan;97865.78;4944347;29;19929;-91
2023/03/29 13:09:57;;;;;;;;;;;;;;;14.51;nan;97870.88;4927675;29;19962;-90
2023/03/29 13:12:44;;;;;;;;;;;;;;;14.42;nan;97862.59;4926375;29;19931;-87
2023/03/29 13:15:32;;;;;;;;;;;;;;;14.48;nan;97848.41;4945327;29;19926;-90
2023/03/29 13:18:16;;;;;;;;;;;;;;;14.32;nan;97847.44;4942834;29;19922;-89
2023/03/29 13:21:03;;;;;;;;;;;;;;;14.14;nan;97846.72;4937352;29;19920;-89
2023/03/29 13:23:53;;;;;;;;;;;;;;;14.17;nan;97849.94;4950174;29;19925;-90
2023/03/29 13:26:54;;;;;;;;;;;;;;;14.35;nan;97854.91;4935517;29;19925;-89
2023/03/29 13:29:55;;;;;;;;;;;;;;;14.56;nan;97857.72;4923347;29;19924;-89
2023/03/29 13:32:39;;;;;;;;;;;;;;;14.54;nan;97854.53;4939763;29;19921;-90
2023/03/29 13:35:41;;;;;;;;;;;;;;;14.52;nan;97846.06;4946862;29;19965;-89
2023/03/29 13:38:27;;;;;;;;;;;;;;;14.58;nan;97839.78;4960210;29;20046;-89
2023/03/29 13:41:30;;;;;;;;;;;;;;;14.61;nan;97831.38;4961346;29;19921;-88
2023/03/29 13:44:32;;;;;;;;;;;;;;;14.61;nan;97827.91;4948317;29;19969;-89
2023/03/29 13:47:31;;;;;;;;;;;;;;;14.69;nan;97830.13;4948213;29;19921;-92
2023/03/29 13:50:17;;;;;;;;;;;;;;;14.89;nan;97824.22;4949104;28;19960;-91
2023/03/29 13:53:14;;;;;;;;;;;;;;;14.98;nan;97822.72;4963033;29;20415;-91
2023/03/29 13:55:59;;;;;;;;;;;;;;;15.23;nan;97823.94;4965295;29;19929;-90
2023/03/29 14:02:37;;;;;;;;;;;;;;;15.05;nan;97822.50;4965601;29;20411;-90
2023/03/29 14:05:27;;;;;;;;;;;;;;;15.13;nan;97818.56;4934321;29;19937;-92
2023/03/29 14:08:30;;;;;;;;;;;;;;;15.05;nan;97806.66;4939953;29;19950;-89
2023/03/29 14:11:28;;;;;;;;;;;;;;;14.99;nan;97792.59;4940183;29;19921;-89
2023/03/29 14:14:12;;;;;;;;;;;;;;;15.11;nan;97773.91;4952280;29;19922;-89
2023/03/29 14:16:56;;;;;;;;;;;;;;;15.32;nan;97766.09;4952706;29;19918;-89
2023/03/29 14:19:40;;;;;;;;;;;;;;;15.48;nan;97745.78;4953018;29;19921;-92
2023/03/29 14:22:29;;;;;;;;;;;;;;;15.31;nan;97740.72;4953177;29;19938;-90
2023/03/29 14:25:16;;;;;;;;;;;;;;;15.55;nan;97719.94;4952728;29;20017;-91
2023/03/29 14:28:00;;;;;;;;;;;;;;;15.71;nan;97717.31;4954097;29;19969;-89
2023/03/29 14:30:45;;;;;;;;;;;;;;;15.90;nan;97727.44;4953811;29;19957;-91
2023/03/29 14:33:33;;;;;;;;;;;;;;;15.95;nan;97722.94;4952881;29;20403;-90
2023/03/29 14:36:17;;;;;;;;;;;;;;;15.83;nan;97722.38;4952164;29;19921;-90
2023/03/29 14:39:07;;;;;;;;;;;;;;;16.03;nan;97713.69;4953868;29;19921;-89
2023/03/29 14:41:52;;;;;;;;;;;;;;;16.33;nan;97693.63;4953049;29;20329;-90
2023/03/29 14:44:39;;;;;;;;;;;;;;;16.23;nan;97701.53;4953935;29;19925;-89
2023/03/29 14:47:28;;;;;;;;;;;;;;;16.61;nan;97686.16;4954201;29;19922;-91
2023/03/29 14:50:16;;;;;;;;;;;;;;;17.06;nan;97685.53;4927001;29;19922;-88
2023/03/29 14:53:01;;;;;;;;;;;;;;;17.10;nan;97687.41;4953760;29;19937;-88
2023/03/29 14:55:47;;;;;;;;;;;;;;;16.83;nan;97690.34;4955531;29;19941;-89
2023/03/29 14:58:32;;;;;;;;;;;;;;;16.72;nan;97683.50;4956866;29;19922;-89
2023/03/29 15:01:18;;;;;;;;;;;;;;;16.94;nan;97668.06;4960179;29;19921;-91
2023/03/29 15:04:04;;;;;;;;;;;;;;;16.98;nan;97663.84;4961097;28;19926;-89
2023/03/29 15:06:54;;;;;;;;;;;;;;;16.46;nan;97659.69;4965558;29;19920;-90